Terminal Aerodrome Forecast
Issued by NWS

Current Version | Previous Version | Text Only | Print | Product List | Glossary On
Versions: 1 2 3 4 5 6 7 8 9 10 11 12 13 14
000
FTUS46 KSEW 041125
TAFBLI
TAF
KBLI 041125Z 0412/0512 00000KT P6SM FEW090 OVC110
     FM041600 22008KT P6SM -SHRA BKN025
     FM042000 34008KT P6SM SCT025 BKN050
     FM050600 16004KT P6SM -SHRA SCT020 BKN045 OVC070=

USA.gov is the U.S. government's official web portal to all federal, state and local government web resources and services.